Time;durP1;ratioP1;P1;durP2;ratioP2;P2;SDS_P1;SDS_P2;PMS_P1;PMS_P2;Temp;Humidity;BMP_temperature;BMP_pressure;BME280_temperature;BME280_humidity;BME280_pressure;Samples;Min_cycle;Max_cycle;Signal;HPM_P1;HPM_P2
2023/06/15 00:00:20;;;;;;;;;8.00;7.00;;;;;;;;119444;1184;25035;-65
2023/06/15 00:03:09;;;;;;;;;8.25;6.00;;;;;;;;119410;1194;25688;-65
2023/06/15 00:05:38;;;;;;;;;11.00;10.00;;;;;;;;119421;1185;24871;-65
2023/06/15 00:08:06;;;;;;;;;7.00;7.00;;;;;;;;119431;1194;25298;-65
2023/06/15 00:10:34;;;;;;;;;8.67;8.00;;;;;;;;119428;1185;25598;-65
2023/06/15 00:13:03;;;;;;;;;7.50;5.75;;;;;;;;119394;1194;25194;-65
2023/06/15 00:15:31;;;;;;;;;7.00;4.00;;;;;;;;119426;1194;25175;-66
2023/06/15 00:17:59;;;;;;;;;9.00;7.00;;;;;;;;119442;1185;24925;-66
2023/06/15 00:20:28;;;;;;;;;10.00;8.00;;;;;;;;119411;1194;24793;-65
2023/06/15 00:22:58;;;;;;;;;7.00;6.25;;;;;;;;119389;1194;24761;-65
2023/06/15 00:25:27;;;;;;;;;7.67;6.67;;;;;;;;119398;1194;25698;-65
2023/06/15 00:27:55;;;;;;;;;8.00;5.00;;;;;;;;119392;1194;24829;-65
2023/06/15 00:30:24;;;;;;;;;8.25;8.25;;;;;;;;119430;1185;25025;-65
2023/06/15 00:32:52;;;;;;;;;6.50;6.50;;;;;;;;119432;1194;25324;-65
2023/06/15 00:35:21;;;;;;;;;9.00;8.00;;;;;;;;119414;1194;25476;-65
2023/06/15 00:37:50;;;;;;;;;9.00;9.00;;;;;;;;119393;1194;24783;-65
2023/06/15 00:40:18;;;;;;;;;7.00;7.00;;;;;;;;119405;1194;25654;-66
2023/06/15 00:42:47;;;;;;;;;10.00;7.50;;;;;;;;119410;1186;25643;-65
2023/06/15 00:45:15;;;;;;;;;8.67;8.00;;;;;;;;119407;1194;25018;-65
2023/06/15 00:47:45;;;;;;;;;3.33;3.00;;;;;;;;119400;1186;25310;-65
2023/06/15 00:50:19;;;;;;;;;8.33;6.67;;;;;;;;119399;1194;25250;-65
2023/06/15 00:52:51;;;;;;;;;9.00;7.00;;;;;;;;119400;1194;25008;-65
2023/06/15 00:55:25;;;;;;;;;9.75;7.50;;;;;;;;119445;1194;24806;-65
2023/06/15 00:57:54;;;;;;;;;7.67;7.33;;;;;;;;119368;1194;24914;-65
2023/06/15 01:00:22;;;;;;;;;8.00;8.00;;;;;;;;119411;1191;25792;-65
2023/06/15 01:02:56;;;;;;;;;8.00;8.00;;;;;;;;119408;1185;25037;-65
2023/06/15 01:05:25;;;;;;;;;9.33;9.33;;;;;;;;119418;1185;25550;-65
2023/06/15 01:07:55;;;;;;;;;6.67;6.33;;;;;;;;119399;1194;25545;-66
2023/06/15 01:10:23;;;;;;;;;7.50;5.00;;;;;;;;119383;1194;25608;-66
2023/06/15 01:12:54;;;;;;;;;8.33;7.67;;;;;;;;119422;1186;25191;-67
2023/06/15 01:15:23;;;;;;;;;6.33;5.33;;;;;;;;119393;1194;25194;-66
2023/06/15 01:17:55;;;;;;;;;5.50;5.50;;;;;;;;119399;1193;26204;-65
2023/06/15 01:20:38;;;;;;;;;7.00;6.00;;;;;;;;119427;1194;24952;-65
2023/06/15 01:23:33;;;;;;;;;8.00;8.00;;;;;;;;119428;1194;24803;-66
2023/06/15 01:26:06;;;;;;;;;8.00;8.00;;;;;;;;119381;1194;25416;-65
2023/06/15 01:28:40;;;;;;;;;7.50;6.25;;;;;;;;119421;1194;24990;-65
2023/06/15 01:31:10;;;;;;;;;8.00;8.00;;;;;;;;119414;1186;24888;-65
2023/06/15 01:33:49;;;;;;;;;9.50;7.00;;;;;;;;119383;1194;24800;-65
2023/06/15 01:36:18;;;;;;;;;6.50;6.50;;;;;;;;119411;1192;25406;-65
2023/06/15 01:38:54;;;;;;;;;7.00;7.00;;;;;;;;119423;1186;25032;-65
2023/06/15 01:41:24;;;;;;;;;9.50;7.00;;;;;;;;119411;1194;25688;-66
2023/06/15 01:43:52;;;;;;;;;;;;;;;;;;119386;1194;25603;-66
2023/06/15 01:46:22;;;;;;;;;10.67;7.67;;;;;;;;119404;1194;24979;-65
2023/06/15 01:48:51;;;;;;;;;7.50;7.00;;;;;;;;119441;1194;24831;-65
2023/06/15 01:51:21;;;;;;;;;10.50;7.00;;;;;;;;119397;1193;25722;-65
2023/06/15 01:53:50;;;;;;;;;10.00;8.00;;;;;;;;119418;1194;25704;-65
2023/06/15 01:56:18;;;;;;;;;8.00;8.00;;;;;;;;119393;1194;24744;-65
2023/06/15 01:58:46;;;;;;;;;9.00;8.00;;;;;;;;119433;1194;24978;-65
2023/06/15 02:01:15;;;;;;;;;6.00;6.00;;;;;;;;119395;1194;25357;-65
2023/06/15 02:03:43;;;;;;;;;9.00;9.00;;;;;;;;119405;1185;25418;-65
2023/06/15 02:06:11;;;;;;;;;6.67;4.67;;;;;;;;119393;1194;25123;-65
2023/06/15 02:08:40;;;;;;;;;5.50;5.00;;;;;;;;119404;1185;25426;-65
2023/06/15 02:11:08;;;;;;;;;8.25;7.25;;;;;;;;119415;1185;24981;-65
2023/06/15 02:13:36;;;;;;;;;11.00;9.25;;;;;;;;119420;1194;25027;-65
2023/06/15 02:16:07;;;;;;;;;8.50;8.00;;;;;;;;119414;1194;24893;-66
2023/06/15 02:18:37;;;;;;;;;11.50;9.00;;;;;;;;119399;1194;25280;-66
2023/06/15 02:21:06;;;;;;;;;11.33;6.67;;;;;;;;119412;1185;25381;-66
2023/06/15 02:23:34;;;;;;;;;9.00;8.00;;;;;;;;119437;1194;25549;-65
2023/06/15 02:26:03;;;;;;;;;7.50;7.00;;;;;;;;119402;1194;25215;-66
2023/06/15 02:28:31;;;;;;;;;6.67;5.33;;;;;;;;119389;1194;25132;-66
2023/06/15 02:31:00;;;;;;;;;8.00;7.00;;;;;;;;119422;1194;24906;-66
2023/06/15 02:33:28;;;;;;;;;5.00;4.00;;;;;;;;119699;1186;25354;-66
2023/06/15 02:35:56;;;;;;;;;9.00;8.00;;;;;;;;119407;1194;25164;-66
2023/06/15 02:38:25;;;;;;;;;8.00;7.00;;;;;;;;119410;1194;25296;-65
2023/06/15 02:40:53;;;;;;;;;9.00;7.00;;;;;;;;119402;1193;25490;-66
2023/06/15 02:43:22;;;;;;;;;9.00;6.00;;;;;;;;119436;1185;24730;-65
2023/06/15 02:45:50;;;;;;;;;7.00;7.00;;;;;;;;119402;1186;24908;-65
2023/06/15 02:48:18;;;;;;;;;8.00;8.00;;;;;;;;119427;1194;24741;-65
2023/06/15 02:50:47;;;;;;;;;9.00;7.00;;;;;;;;119388;1194;24792;-65
2023/06/15 02:53:15;;;;;;;;;8.00;8.00;;;;;;;;119421;1194;25556;-66
2023/06/15 02:55:43;;;;;;;;;6.67;6.00;;;;;;;;119429;1194;24937;-66
2023/06/15 02:58:13;;;;;;;;;6.50;6.50;;;;;;;;119402;1194;25337;-67
2023/06/15 03:00:42;;;;;;;;;10.33;7.67;;;;;;;;119382;1194;24737;-66
2023/06/15 03:03:11;;;;;;;;;7.00;7.00;;;;;;;;119401;1186;25334;-67
2023/06/15 03:05:39;;;;;;;;;8.00;7.25;;;;;;;;119418;1190;24916;-66
2023/06/15 03:08:07;;;;;;;;;13.00;10.50;;;;;;;;119433;1194;25899;-66
2023/06/15 03:10:36;;;;;;;;;6.00;6.00;;;;;;;;119404;1194;24751;-66
2023/06/15 03:13:04;;;;;;;;;10.00;8.00;;;;;;;;119450;1185;24909;-66
2023/06/15 03:15:32;;;;;;;;;7.00;6.00;;;;;;;;119403;1194;25381;-68
2023/06/15 03:18:01;;;;;;;;;7.00;7.00;;;;;;;;119433;1194;24886;-67
2023/06/15 03:20:32;;;;;;;;;9.00;7.00;;;;;;;;119411;1194;25439;-67
2023/06/15 03:23:01;;;;;;;;;14.00;8.33;;;;;;;;119409;1185;25020;-67
2023/06/15 03:25:29;;;;;;;;;9.50;8.00;;;;;;;;119346;1194;25426;-66
2023/06/15 03:27:59;;;;;;;;;10.00;8.50;;;;;;;;119432;1194;25574;-67
2023/06/15 03:30:29;;;;;;;;;11.00;8.67;;;;;;;;119412;1194;25231;-67
2023/06/15 03:32:57;;;;;;;;;10.00;9.67;;;;;;;;119415;1185;25176;-67
2023/06/15 03:35:26;;;;;;;;;7.50;7.00;;;;;;;;119381;1186;25026;-66
2023/06/15 03:37:55;;;;;;;;;8.00;8.00;;;;;;;;119439;1186;24699;-67
2023/06/15 03:40:23;;;;;;;;;11.00;9.00;;;;;;;;119427;1194;25466;-67
2023/06/15 03:42:52;;;;;;;;;11.50;10.50;;;;;;;;119401;1194;25268;-66
2023/06/15 03:45:20;;;;;;;;;6.00;6.00;;;;;;;;119404;1194;25578;-67
2023/06/15 03:47:48;;;;;;;;;4.00;4.00;;;;;;;;119369;1194;25209;-67
2023/06/15 03:50:17;;;;;;;;;4.00;4.00;;;;;;;;119417;1194;24729;-67
2023/06/15 03:52:45;;;;;;;;;8.00;8.00;;;;;;;;119419;1186;25202;-67
2023/06/15 03:55:13;;;;;;;;;8.00;8.00;;;;;;;;119418;1194;24996;-67
2023/06/15 03:57:42;;;;;;;;;7.00;5.67;;;;;;;;119455;1194;25385;-67
2023/06/15 04:00:11;;;;;;;;;11.67;10.33;;;;;;;;119412;1186;25079;-66
2023/06/15 04:02:40;;;;;;;;;8.00;8.00;;;;;;;;119416;1186;25369;-67
2023/06/15 04:05:09;;;;;;;;;8.33;7.33;;;;;;;;119422;1194;25400;-67
2023/06/15 04:07:39;;;;;;;;;8.50;7.25;;;;;;;;119380;1194;25577;-67
2023/06/15 04:10:08;;;;;;;;;8.50;7.50;;;;;;;;119598;1186;25411;-67
2023/06/15 04:12:37;;;;;;;;;9.00;9.00;;;;;;;;119408;1194;26214;-67
2023/06/15 04:15:06;;;;;;;;;9.00;9.00;;;;;;;;119427;1185;25020;-67
2023/06/15 04:17:35;;;;;;;;;8.25;7.25;;;;;;;;119455;1194;24970;-67
2023/06/15 04:20:05;;;;;;;;;12.50;9.00;;;;;;;;119433;1186;25371;-67
2023/06/15 04:22:33;;;;;;;;;8.00;7.75;;;;;;;;119446;1185;24752;-67
2023/06/15 04:25:02;;;;;;;;;10.25;6.75;;;;;;;;119425;1194;25080;-67
2023/06/15 04:27:31;;;;;;;;;9.00;8.00;;;;;;;;119381;1184;25161;-67
2023/06/15 04:30:00;;;;;;;;;5.00;4.00;;;;;;;;119382;1194;25422;-67
2023/06/15 04:32:30;;;;;;;;;9.50;8.00;;;;;;;;119376;1194;25554;-67
2023/06/15 04:34:59;;;;;;;;;11.00;7.50;;;;;;;;119419;1185;25525;-66
2023/06/15 04:37:28;;;;;;;;;13.50;9.50;;;;;;;;119435;1194;25262;-67
2023/06/15 04:39:59;;;;;;;;;10.25;6.75;;;;;;;;119406;1190;25278;-66
2023/06/15 04:42:32;;;;;;;;;8.00;8.00;;;;;;;;119390;1194;25956;-67
2023/06/15 04:45:00;;;;;;;;;6.00;6.00;;;;;;;;119437;1186;25301;-67
2023/06/15 04:47:29;;;;;;;;;11.67;9.67;;;;;;;;119428;1194;24779;-67
2023/06/15 04:49:57;;;;;;;;;11.00;10.67;;;;;;;;119401;1193;25451;-67
2023/06/15 04:52:25;;;;;;;;;11.00;9.00;;;;;;;;119413;1186;24911;-67
2023/06/15 04:54:53;;;;;;;;;10.00;9.67;;;;;;;;119409;1194;25331;-67
2023/06/15 04:57:22;;;;;;;;;12.50;10.50;;;;;;;;119398;1194;25447;-67
2023/06/15 04:59:50;;;;;;;;;15.00;9.00;;;;;;;;119392;1193;25781;-67
2023/06/15 05:02:19;;;;;;;;;8.50;8.50;;;;;;;;119459;1180;26429;-67
2023/06/15 05:04:47;;;;;;;;;;;;;;;;;;119412;1194;25270;-66
2023/06/15 05:07:15;;;;;;;;;7.00;7.00;;;;;;;;119409;1186;25372;-67
2023/06/15 05:09:44;;;;;;;;;8.33;8.00;;;;;;;;119406;1186;24981;-66
2023/06/15 05:12:12;;;;;;;;;8.00;6.50;;;;;;;;119378;1187;25025;-66
2023/06/15 05:14:40;;;;;;;;;12.50;9.00;;;;;;;;119427;1194;25444;-66
2023/06/15 05:17:09;;;;;;;;;10.67;10.00;;;;;;;;119412;1194;24937;-66
2023/06/15 05:19:37;;;;;;;;;8.00;6.50;;;;;;;;119427;1194;25181;-67
2023/06/15 05:22:06;;;;;;;;;8.67;7.33;;;;;;;;119403;1186;25880;-66
2023/06/15 05:24:35;;;;;;;;;9.50;8.75;;;;;;;;119438;1180;25105;-67
2023/06/15 05:27:03;;;;;;;;;11.00;9.00;;;;;;;;119400;1186;25279;-67
2023/06/15 05:29:32;;;;;;;;;15.50;10.50;;;;;;;;119441;1194;25213;-67
2023/06/15 05:32:00;;;;;;;;;10.33;9.67;;;;;;;;119410;1194;25117;-66
2023/06/15 05:34:29;;;;;;;;;17.33;12.33;;;;;;;;119437;1194;25526;-67
2023/06/15 05:36:57;;;;;;;;;8.67;6.33;;;;;;;;119403;1194;24806;-67
2023/06/15 05:39:25;;;;;;;;;6.25;5.25;;;;;;;;119403;1184;25309;-67
2023/06/15 05:41:54;;;;;;;;;12.00;11.00;;;;;;;;119409;1194;25652;-67
2023/06/15 05:44:22;;;;;;;;;11.00;9.00;;;;;;;;119409;1194;25199;-66
2023/06/15 05:46:52;;;;;;;;;9.33;9.00;;;;;;;;119385;1185;25324;-67
2023/06/15 05:49:21;;;;;;;;;10.00;9.50;;;;;;;;119385;1194;24893;-66
2023/06/15 05:51:50;;;;;;;;;14.25;11.00;;;;;;;;119419;1194;25657;-67
2023/06/15 05:54:18;;;;;;;;;13.00;9.00;;;;;;;;119399;1194;25024;-65
2023/06/15 05:56:47;;;;;;;;;7.67;7.67;;;;;;;;119390;1194;25352;-64
2023/06/15 05:59:15;;;;;;;;;11.33;9.33;;;;;;;;119405;1194;24852;-65
2023/06/15 06:01:58;;;;;;;;;7.50;7.50;;;;;;;;119417;1180;25667;-65
2023/06/15 06:04:26;;;;;;;;;16.00;10.33;;;;;;;;119414;1187;24727;-64
2023/06/15 06:06:55;;;;;;;;;10.00;10.00;;;;;;;;119438;1194;24721;-65
2023/06/15 06:09:23;;;;;;;;;14.00;11.50;;;;;;;;119415;1194;24699;-64
2023/06/15 06:11:51;;;;;;;;;8.50;7.00;;;;;;;;119401;1185;25503;-65
2023/06/15 06:14:20;;;;;;;;;8.00;7.00;;;;;;;;119420;1194;24841;-65
2023/06/15 06:16:48;;;;;;;;;11.50;10.50;;;;;;;;119412;1194;26117;-65
2023/06/15 06:19:17;;;;;;;;;15.00;14.00;;;;;;;;119420;1186;25009;-64
2023/06/15 06:21:46;;;;;;;;;10.00;10.00;;;;;;;;119409;1194;25270;-65
2023/06/15 06:24:14;;;;;;;;;10.33;9.33;;;;;;;;119404;1194;25497;-65
2023/06/15 06:26:43;;;;;;;;;12.00;9.00;;;;;;;;119409;1194;25098;-64
2023/06/15 06:29:11;;;;;;;;;8.50;8.50;;;;;;;;119389;1185;25630;-64
2023/06/15 06:31:40;;;;;;;;;12.00;11.00;;;;;;;;119399;1194;24865;-64
2023/06/15 06:34:08;;;;;;;;;10.00;10.00;;;;;;;;119399;1185;25133;-64
2023/06/15 06:36:37;;;;;;;;;10.00;10.00;;;;;;;;119412;1194;24964;-64
2023/06/15 06:39:06;;;;;;;;;12.00;11.67;;;;;;;;119378;1194;24880;-65
2023/06/15 06:41:34;;;;;;;;;10.67;10.33;;;;;;;;119418;1194;25008;-65
2023/06/15 06:44:02;;;;;;;;;10.00;9.00;;;;;;;;119414;1185;25725;-66
2023/06/15 06:46:31;;;;;;;;;9.33;9.33;;;;;;;;119397;1194;25630;-65
2023/06/15 06:48:59;;;;;;;;;16.50;13.00;;;;;;;;119404;1194;24779;-65
2023/06/15 06:51:27;;;;;;;;;8.00;8.00;;;;;;;;119405;1186;24991;-65
2023/06/15 06:53:56;;;;;;;;;11.00;10.00;;;;;;;;119390;1194;25149;-65
2023/06/15 06:56:26;;;;;;;;;11.00;11.00;;;;;;;;119408;1194;25319;-59
2023/06/15 06:58:54;;;;;;;;;9.50;9.50;;;;;;;;119448;1194;24843;-59
2023/06/15 07:01:23;;;;;;;;;10.33;10.00;;;;;;;;119407;1193;25704;-59
2023/06/15 07:03:52;;;;;;;;;11.33;10.00;;;;;;;;119410;1194;25159;-59
2023/06/15 07:06:20;;;;;;;;;15.00;14.00;;;;;;;;119401;1185;25583;-59
2023/06/15 07:08:49;;;;;;;;;9.00;9.00;;;;;;;;119419;1194;25077;-59
2023/06/15 07:11:17;;;;;;;;;16.00;12.33;;;;;;;;119427;1194;25640;-59
2023/06/15 07:13:45;;;;;;;;;11.00;11.00;;;;;;;;119404;1186;25618;-59
2023/06/15 07:16:14;;;;;;;;;9.00;9.00;;;;;;;;119381;1194;25360;-59
2023/06/15 07:18:42;;;;;;;;;12.00;10.00;;;;;;;;119383;1194;24750;-59
2023/06/15 07:21:11;;;;;;;;;14.00;12.67;;;;;;;;119439;1194;25645;-59
2023/06/15 07:23:39;;;;;;;;;12.33;12.00;;;;;;;;119428;1194;25441;-59
2023/06/15 07:26:21;;;;;;;;;14.00;12.00;;;;;;;;119407;1194;25710;-58
2023/06/15 07:28:49;;;;;;;;;21.75;14.25;;;;;;;;119429;1186;24887;-59
2023/06/15 07:31:18;;;;;;;;;17.00;12.50;;;;;;;;119387;1194;26153;-59
2023/06/15 07:33:46;;;;;;;;;13.00;12.00;;;;;;;;119418;1194;25062;-59
2023/06/15 07:36:15;;;;;;;;;16.33;15.67;;;;;;;;119420;1194;24803;-59
2023/06/15 07:38:43;;;;;;;;;22.00;18.00;;;;;;;;119411;1190;25286;-59
2023/06/15 07:41:11;;;;;;;;;15.00;13.00;;;;;;;;119393;1194;25604;-59
2023/06/15 07:43:39;;;;;;;;;16.33;13.67;;;;;;;;119405;1194;24956;-59
2023/06/15 07:46:08;;;;;;;;;18.00;15.00;;;;;;;;119429;1194;25352;-59
2023/06/15 07:48:36;;;;;;;;;14.00;13.00;;;;;;;;119401;1194;24920;-59
2023/06/15 07:51:04;;;;;;;;;15.00;11.00;;;;;;;;119418;1194;25004;-59
2023/06/15 07:53:33;;;;;;;;;15.00;15.00;;;;;;;;119426;1194;24909;-59
2023/06/15 07:56:01;;;;;;;;;9.00;9.00;;;;;;;;119421;1194;25126;-59
2023/06/15 07:58:29;;;;;;;;;14.00;14.00;;;;;;;;119411;1194;24871;-59
2023/06/15 08:00:58;;;;;;;;;9.50;9.50;;;;;;;;119410;1194;24857;-59
2023/06/15 08:03:26;;;;;;;;;9.50;8.50;;;;;;;;119420;1193;24818;-59
2023/06/15 08:05:54;;;;;;;;;15.50;14.00;;;;;;;;119407;1190;25392;-59
2023/06/15 08:08:23;;;;;;;;;11.00;10.25;;;;;;;;119401;1186;25652;-59
2023/06/15 08:10:51;;;;;;;;;15.00;12.50;;;;;;;;119425;1194;25033;-59
2023/06/15 08:13:20;;;;;;;;;13.00;12.00;;;;;;;;119408;1185;25166;-59
2023/06/15 08:15:49;;;;;;;;;9.33;8.33;;;;;;;;119425;1187;24823;-59
2023/06/15 08:18:17;;;;;;;;;12.50;11.00;;;;;;;;119393;1194;25458;-59
2023/06/15 08:20:46;;;;;;;;;12.50;11.00;;;;;;;;119373;1194;25598;-59
2023/06/15 08:23:15;;;;;;;;;14.33;12.33;;;;;;;;119405;1194;25683;-59
2023/06/15 08:25:43;;;;;;;;;13.33;13.33;;;;;;;;119407;1194;24863;-59
2023/06/15 08:28:12;;;;;;;;;12.00;10.00;;;;;;;;119410;1194;25606;-59
2023/06/15 08:30:40;;;;;;;;;14.00;13.00;;;;;;;;119334;1194;25586;-59
2023/06/15 08:33:08;;;;;;;;;15.33;14.00;;;;;;;;119423;1194;25639;-59
2023/06/15 08:35:37;;;;;;;;;15.00;12.00;;;;;;;;119422;1194;24900;-59
2023/06/15 08:38:05;;;;;;;;;17.67;11.33;;;;;;;;119417;1194;25611;-59
2023/06/15 08:40:34;;;;;;;;;13.00;10.00;;;;;;;;119382;1194;24825;-59
2023/06/15 08:43:05;;;;;;;;;10.33;8.67;;;;;;;;119386;1194;25312;-58
2023/06/15 08:45:41;;;;;;;;;14.00;14.00;;;;;;;;119432;1186;25056;-59
2023/06/15 08:48:11;;;;;;;;;13.33;9.00;;;;;;;;119412;1194;24855;-59
2023/06/15 08:50:40;;;;;;;;;7.50;7.50;;;;;;;;119395;1194;25502;-59
2023/06/15 08:53:13;;;;;;;;;17.00;13.50;;;;;;;;119409;1186;25797;-59
2023/06/15 08:55:42;;;;;;;;;13.50;13.50;;;;;;;;119393;1194;25119;-59
2023/06/15 08:58:11;;;;;;;;;10.00;10.00;;;;;;;;119417;1185;25238;-59
2023/06/15 09:00:39;;;;;;;;;12.50;12.50;;;;;;;;119408;1194;25107;-59
2023/06/15 09:03:09;;;;;;;;;13.33;12.00;;;;;;;;119402;1193;24841;-59
2023/06/15 09:05:38;;;;;;;;;12.00;12.00;;;;;;;;119411;1194;24931;-59
2023/06/15 09:08:06;;;;;;;;;15.33;14.33;;;;;;;;119457;1193;25303;-59
2023/06/15 09:10:38;;;;;;;;;11.50;10.00;;;;;;;;119390;1194;25230;-59
2023/06/15 09:13:15;;;;;;;;;18.33;15.00;;;;;;;;119417;1194;25466;-59
2023/06/15 09:15:50;;;;;;;;;16.00;14.00;;;;;;;;119396;1194;25674;-59
2023/06/15 09:18:18;;;;;;;;;12.00;11.00;;;;;;;;119407;1194;24955;-59
2023/06/15 09:20:48;;;;;;;;;13.00;11.00;;;;;;;;119393;1187;24999;-59
2023/06/15 09:23:17;;;;;;;;;12.00;12.00;;;;;;;;119395;1194;24785;-59
2023/06/15 09:25:56;;;;;;;;;9.75;9.50;;;;;;;;119407;1194;25248;-59
2023/06/15 09:28:28;;;;;;;;;14.00;11.00;;;;;;;;119431;1194;25982;-60
2023/06/15 09:30:56;;;;;;;;;16.50;14.00;;;;;;;;119417;1194;24929;-59
2023/06/15 09:33:25;;;;;;;;;12.33;12.33;;;;;;;;119405;1194;25367;-59
2023/06/15 09:35:58;;;;;;;;;13.50;11.50;;;;;;;;119409;1190;24935;-59
2023/06/15 09:38:33;;;;;;;;;17.00;12.00;;;;;;;;119406;1194;24816;-59
2023/06/15 09:41:03;;;;;;;;;16.00;12.50;;;;;;;;119412;1185;24972;-59
2023/06/15 09:43:37;;;;;;;;;11.50;11.00;;;;;;;;119405;1186;25169;-59
2023/06/15 09:46:13;;;;;;;;;12.33;10.00;;;;;;;;119407;1194;25681;-59
2023/06/15 09:48:43;;;;;;;;;14.00;14.00;;;;;;;;119405;1187;24725;-59
2023/06/15 09:51:12;;;;;;;;;16.75;14.00;;;;;;;;119463;1186;24896;-59
2023/06/15 09:53:42;;;;;;;;;15.50;12.00;;;;;;;;119418;1194;25052;-58
2023/06/15 09:56:11;;;;;;;;;15.00;13.00;;;;;;;;119376;1194;25433;-58
2023/06/15 09:59:02;;;;;;;;;16.00;13.00;;;;;;;;119410;1185;24747;-58
2023/06/15 10:01:34;;;;;;;;;15.00;14.33;;;;;;;;119393;1193;25100;-58
2023/06/15 10:04:04;;;;;;;;;16.00;12.00;;;;;;;;119435;1186;25425;-58
2023/06/15 10:06:36;;;;;;;;;10.50;10.50;;;;;;;;119418;1194;25051;-58
2023/06/15 10:09:06;;;;;;;;;14.75;12.75;;;;;;;;119409;1194;25306;-59
2023/06/15 10:11:37;;;;;;;;;14.00;14.00;;;;;;;;119407;1194;25475;-59
2023/06/15 10:14:16;;;;;;;;;10.00;10.00;;;;;;;;119414;1194;25169;-59
2023/06/15 10:16:49;;;;;;;;;14.50;13.25;;;;;;;;119397;1194;25288;-58
2023/06/15 10:19:22;;;;;;;;;14.00;14.00;;;;;;;;119426;1190;26406;-59
2023/06/15 10:21:50;;;;;;;;;10.00;10.00;;;;;;;;119437;1190;24690;-58
2023/06/15 10:24:21;;;;;;;;;15.00;13.00;;;;;;;;119509;1189;24825;-59
2023/06/15 10:26:50;;;;;;;;;17.00;12.50;;;;;;;;119426;1194;25355;-58
2023/06/15 10:29:24;;;;;;;;;15.67;14.33;;;;;;;;119476;1189;25015;-58
2023/06/15 10:32:08;;;;;;;;;12.00;12.00;;;;;;;;119471;1186;25467;-58
2023/06/15 10:34:45;;;;;;;;;14.50;13.00;;;;;;;;119497;1190;25389;-58
2023/06/15 10:37:26;;;;;;;;;16.33;13.33;;;;;;;;119443;1190;25258;-58
2023/06/15 10:39:59;;;;;;;;;19.00;14.33;;;;;;;;119373;1194;24808;-60
2023/06/15 10:42:28;;;;;;;;;14.50;13.50;;;;;;;;119578;1189;24904;-59
2023/06/15 10:44:58;;;;;;;;;13.33;13.00;;;;;;;;119411;1184;25545;-58
2023/06/15 10:47:26;;;;;;;;;17.00;15.00;;;;;;;;119423;1194;25495;-59
2023/06/15 10:49:55;;;;;;;;;17.50;15.00;;;;;;;;119586;1189;24691;-59
2023/06/15 10:52:34;;;;;;;;;16.00;14.00;;;;;;;;119467;1190;25525;-58
2023/06/15 10:55:08;;;;;;;;;15.67;12.00;;;;;;;;119608;1185;25448;-59
2023/06/15 10:57:37;;;;;;;;;16.00;14.33;;;;;;;;119482;1189;25105;-59
2023/06/15 11:00:07;;;;;;;;;14.00;11.00;;;;;;;;119480;1189;25448;-58
2023/06/15 11:02:35;;;;;;;;;14.00;14.00;;;;;;;;119387;1194;25524;-57
2023/06/15 11:05:08;;;;;;;;;14.33;13.33;;;;;;;;119479;1189;25718;-58
2023/06/15 11:07:37;;;;;;;;;13.00;11.50;;;;;;;;119400;1186;25616;-58
2023/06/15 11:10:21;;;;;;;;;13.33;13.33;;;;;;;;119486;1180;24838;-58
2023/06/15 11:13:01;;;;;;;;;11.00;11.00;;;;;;;;119476;1189;25585;-58
2023/06/15 11:15:34;;;;;;;;;14.00;13.00;;;;;;;;119402;1186;25438;-58
2023/06/15 11:18:12;;;;;;;;;18.33;15.33;;;;;;;;119485;1189;24734;-58
2023/06/15 11:20:59;;;;;;;;;15.00;12.00;;;;;;;;119422;1190;25635;-59
2023/06/15 11:23:32;;;;;;;;;16.50;14.50;;;;;;;;119408;1185;25679;-59
2023/06/15 11:26:02;;;;;;;;;17.00;15.00;;;;;;;;119413;1185;25141;-59
2023/06/15 11:28:33;;;;;;;;;19.33;14.67;;;;;;;;119414;1191;25687;-60
2023/06/15 11:31:06;;;;;;;;;14.33;9.33;;;;;;;;119511;1189;25386;-59
2023/06/15 11:33:37;;;;;;;;;16.33;14.67;;;;;;;;119556;1187;25706;-60
2023/06/15 11:36:10;;;;;;;;;14.50;12.00;;;;;;;;119422;1185;25629;-59
2023/06/15 11:38:39;;;;;;;;;13.50;10.50;;;;;;;;119509;1189;25209;-59
2023/06/15 11:41:10;;;;;;;;;10.50;10.50;;;;;;;;119388;1186;24903;-59
2023/06/15 11:43:46;;;;;;;;;15.50;14.00;;;;;;;;119383;1186;24766;-58
2023/06/15 11:46:20;;;;;;;;;17.50;15.50;;;;;;;;119440;1186;25638;-59
2023/06/15 11:48:54;;;;;;;;;16.00;14.00;;;;;;;;119419;1186;25674;-59
2023/06/15 11:51:23;;;;;;;;;20.00;17.33;;;;;;;;119390;1194;25364;-59
2023/06/15 11:53:53;;;;;;;;;20.00;14.00;;;;;;;;119408;1194;24781;-59
2023/06/15 11:56:22;;;;;;;;;13.67;12.67;;;;;;;;119411;1194;24969;-58
2023/06/15 11:58:51;;;;;;;;;15.00;15.00;;;;;;;;119398;1194;25735;-59
2023/06/15 12:01:20;;;;;;;;;11.33;11.33;;;;;;;;119411;1186;25432;-59
2023/06/15 12:03:51;;;;;;;;;18.00;14.50;;;;;;;;119398;1194;25208;-59
2023/06/15 12:06:22;;;;;;;;;11.00;11.00;;;;;;;;119412;1194;25333;-59
2023/06/15 12:08:52;;;;;;;;;17.50;14.50;;;;;;;;119429;1186;25167;-59
2023/06/15 12:11:26;;;;;;;;;14.00;14.00;;;;;;;;119398;1194;25296;-60
2023/06/15 12:14:23;;;;;;;;;11.50;10.50;;;;;;;;119517;1190;24978;-59
2023/06/15 12:16:52;;;;;;;;;16.00;13.33;;;;;;;;119366;1194;24992;-59
2023/06/15 12:19:21;;;;;;;;;16.33;16.33;;;;;;;;119483;1185;24924;-60
2023/06/15 12:21:50;;;;;;;;;16.50;11.00;;;;;;;;119460;1191;25614;-59
2023/06/15 12:24:22;;;;;;;;;18.67;17.00;;;;;;;;119464;1186;25256;-60
2023/06/15 12:27:00;;;;;;;;;17.00;15.00;;;;;;;;119450;1190;24831;-59
2023/06/15 12:29:28;;;;;;;;;20.00;18.00;;;;;;;;119411;1194;25207;-59
2023/06/15 12:31:57;;;;;;;;;14.00;14.00;;;;;;;;119559;1189;24934;-59
2023/06/15 12:34:26;;;;;;;;;15.50;15.00;;;;;;;;119425;1187;25045;-59
2023/06/15 12:36:57;;;;;;;;;18.00;15.50;;;;;;;;119564;1189;25654;-59
2023/06/15 12:39:30;;;;;;;;;18.00;15.00;;;;;;;;119405;1189;25010;-59
2023/06/15 12:42:00;;;;;;;;;15.75;13.75;;;;;;;;119492;1182;25207;-59
2023/06/15 12:44:31;;;;;;;;;16.33;16.33;;;;;;;;119548;1186;25385;-59
2023/06/15 12:47:00;;;;;;;;;18.33;14.67;;;;;;;;119413;1194;25397;-59
2023/06/15 12:49:28;;;;;;;;;17.33;15.00;;;;;;;;119492;1190;29276;-59
2023/06/15 12:51:56;;;;;;;;;22.00;18.67;;;;;;;;119499;1190;25282;-59
2023/06/15 12:54:25;;;;;;;;;13.00;11.67;;;;;;;;119426;1182;25363;-59
2023/06/15 12:56:53;;;;;;;;;14.00;12.00;;;;;;;;119433;1190;26372;-59
2023/06/15 12:59:21;;;;;;;;;15.67;12.33;;;;;;;;119504;1189;25402;-59
2023/06/15 13:01:50;;;;;;;;;14.00;14.00;;;;;;;;119402;1186;25329;-58
2023/06/15 13:04:18;;;;;;;;;15.50;13.25;;;;;;;;119419;1194;25688;-59
2023/06/15 13:06:47;;;;;;;;;18.00;16.00;;;;;;;;119422;1194;25642;-59
2023/06/15 13:09:15;;;;;;;;;15.50;15.00;;;;;;;;119386;1194;25525;-59
2023/06/15 13:11:44;;;;;;;;;17.00;16.00;;;;;;;;119501;1190;25027;-59
2023/06/15 13:14:12;;;;;;;;;19.00;16.00;;;;;;;;119516;1182;25209;-59
2023/06/15 13:16:41;;;;;;;;;14.00;14.00;;;;;;;;119403;1194;24707;-60
2023/06/15 13:19:10;;;;;;;;;13.33;12.00;;;;;;;;119399;1185;24789;-59
2023/06/15 13:21:38;;;;;;;;;16.00;14.00;;;;;;;;119404;1190;24888;-60
2023/06/15 13:24:06;;;;;;;;;19.33;14.33;;;;;;;;119400;1185;25273;-59
2023/06/15 13:26:35;;;;;;;;;15.67;13.67;;;;;;;;119421;1194;25011;-60
2023/06/15 13:29:03;;;;;;;;;13.67;13.00;;;;;;;;119403;1185;24693;-59
2023/06/15 13:31:31;;;;;;;;;17.00;16.00;;;;;;;;119512;1190;25517;-59
2023/06/15 13:34:00;;;;;;;;;16.50;15.00;;;;;;;;119414;1191;25563;-61
2023/06/15 13:36:28;;;;;;;;;19.00;17.00;;;;;;;;119448;1190;25615;-59
2023/06/15 13:38:57;;;;;;;;;16.00;15.50;;;;;;;;119403;1194;25364;-60
2023/06/15 13:41:25;;;;;;;;;14.00;13.50;;;;;;;;119414;1185;25572;-59
2023/06/15 13:43:56;;;;;;;;;14.00;12.33;;;;;;;;119398;1194;25074;-59
2023/06/15 13:46:25;;;;;;;;;14.00;13.50;;;;;;;;119357;1191;25125;-59
2023/06/15 13:48:54;;;;;;;;;16.25;15.00;;;;;;;;119412;1185;25742;-58
2023/06/15 13:51:22;;;;;;;;;18.00;16.50;;;;;;;;119406;1194;25033;-59
2023/06/15 13:53:51;;;;;;;;;14.50;14.50;;;;;;;;119432;1190;25534;-59
2023/06/15 13:56:19;;;;;;;;;13.00;11.67;;;;;;;;119378;1194;25037;-60
2023/06/15 13:58:48;;;;;;;;;13.00;11.33;;;;;;;;119431;1185;24798;-62
2023/06/15 14:01:19;;;;;;;;;14.00;14.00;;;;;;;;119416;1194;24966;-62
2023/06/15 14:03:47;;;;;;;;;12.00;10.50;;;;;;;;119429;1185;24816;-62
2023/06/15 14:06:16;;;;;;;;;15.00;14.00;;;;;;;;119415;1194;24984;-63
2023/06/15 14:08:45;;;;;;;;;14.00;11.00;;;;;;;;119399;1194;25014;-62
2023/06/15 14:11:15;;;;;;;;;22.00;17.00;;;;;;;;119418;1194;25169;-63
2023/06/15 14:13:50;;;;;;;;;22.67;15.00;;;;;;;;119418;1194;24864;-62
2023/06/15 14:16:20;;;;;;;;;17.00;16.50;;;;;;;;119397;1194;25092;-62
2023/06/15 14:18:51;;;;;;;;;16.00;15.00;;;;;;;;119430;1194;25447;-62
2023/06/15 14:21:24;;;;;;;;;21.00;17.00;;;;;;;;119443;1185;25027;-62
2023/06/15 14:23:52;;;;;;;;;14.00;13.50;;;;;;;;119402;1194;26124;-62
2023/06/15 14:26:21;;;;;;;;;21.33;18.00;;;;;;;;119426;1194;25732;-61
2023/06/15 14:28:49;;;;;;;;;19.00;17.00;;;;;;;;119435;1194;24967;-61